createdAt,value
2019-05-02T00:01:31.314Z,31.37
2019-05-02T00:03:57.892Z,29.07
2019-05-02T00:06:24.741Z,29.53
2019-05-02T00:08:51.107Z,36.37
2019-05-02T00:11:17.956Z,31.37
2019-05-02T00:13:44.436Z,26.53
2019-05-02T00:16:14.175Z,29.50
2019-05-02T00:18:39.249Z,28.43
2019-05-02T00:21:06.897Z,30.83
2019-05-02T00:23:33.371Z,30.10
2019-05-02T00:25:59.742Z,29.63
2019-05-02T00:28:26.451Z,30.07
2019-05-02T00:30:52.904Z,29.37
2019-05-02T00:33:19.373Z,30.80
2019-05-02T00:35:47.352Z,30.63
2019-05-02T00:38:14.088Z,33.60
2019-05-02T00:40:40.536Z,31.03
2019-05-02T00:43:06.921Z,32.37
2019-05-02T00:45:33.279Z,33.00
2019-05-02T00:48:01.559Z,36.13
2019-05-02T00:50:29.816Z,32.70
2019-05-02T00:52:56.270Z,31.63
2019-05-02T00:55:22.618Z,30.73
2019-05-02T00:57:50.911Z,36.23
2019-05-02T01:00:18.438Z,35.20
2019-05-02T01:02:47.687Z,27.57
2019-05-02T01:05:14.135Z,31.43
2019-05-02T01:07:40.599Z,28.80
2019-05-02T01:10:08.155Z,32.07
2019-05-02T01:12:34.564Z,28.43
2019-05-02T01:15:03.192Z,32.27
2019-05-02T01:17:30.989Z,32.93
2019-05-02T01:19:57.644Z,36.30
2019-05-02T01:22:24.096Z,29.47
2019-05-02T01:24:50.471Z,32.00
2019-05-02T01:27:19.115Z,30.37
2019-05-02T01:29:47.492Z,30.63
2019-05-02T01:32:15.843Z,31.73
2019-05-02T01:34:48.927Z,29.57
2019-05-02T01:37:20.796Z,32.57
2019-05-02T01:39:46.086Z,32.67
2019-05-02T01:42:12.445Z,33.63
2019-05-02T01:44:38.908Z,33.50
2019-05-02T01:47:05.359Z,30.10
2019-05-02T01:49:31.722Z,32.80
2019-05-02T01:51:58.275Z,34.53
2019-05-02T01:54:24.744Z,32.67
2019-05-02T01:56:51.096Z,35.07
2019-05-02T01:59:17.734Z,33.07
2019-05-02T02:01:44.357Z,36.87
2019-05-02T02:04:10.724Z,31.70
2019-05-02T02:06:38.771Z,33.97
2019-05-02T02:09:08.424Z,36.23
2019-05-02T02:11:35.869Z,36.73
2019-05-02T02:14:07.395Z,31.37
2019-05-02T02:16:35.257Z,29.57
2019-05-02T02:19:03.958Z,32.27
2019-05-02T02:21:32.028Z,31.93
2019-05-02T02:23:59.480Z,35.23
2019-05-02T02:26:25.867Z,31.27
2019-05-02T02:28:52.359Z,35.13
2019-05-02T02:31:19.331Z,29.97
2019-05-02T02:33:47.566Z,31.97
2019-05-02T02:36:14.257Z,32.97
2019-05-02T02:38:40.604Z,31.93
2019-05-02T02:41:12.971Z,31.70
2019-05-02T02:43:35.355Z,32.40
2019-05-02T02:46:03.756Z,34.60
2019-05-02T02:48:33.521Z,33.37
2019-05-02T02:50:59.571Z,33.93
2019-05-02T02:53:27.846Z,36.47
2019-05-02T02:56:01.195Z,31.00
2019-05-02T02:58:22.675Z,34.13
2019-05-02T03:00:49.370Z,34.77
2019-05-02T03:03:20.641Z,32.87
2019-05-02T03:05:44.369Z,29.40
2019-05-02T03:08:10.921Z,33.70
2019-05-02T03:10:44.968Z,31.77
2019-05-02T03:13:08.391Z,35.30
2019-05-02T03:15:36.779Z,36.13
2019-05-02T03:18:03.232Z,39.73
2019-05-02T03:20:40.083Z,29.90
2019-05-02T03:22:57.961Z,33.07
2019-05-02T03:25:24.998Z,34.13
2019-05-02T03:27:52.931Z,33.40
2019-05-02T03:30:31.644Z,34.20
2019-05-02T03:33:02.499Z,35.37
2019-05-02T03:35:18.871Z,37.47
2019-05-02T03:37:44.720Z,37.93
2019-05-02T03:40:12.726Z,38.37
2019-05-02T03:42:44.740Z,37.43
2019-05-02T03:45:10.154Z,37.70
2019-05-02T03:47:43.014Z,35.27
2019-05-02T03:50:08.679Z,32.33
2019-05-02T03:52:36.796Z,34.80
2019-05-02T03:55:03.917Z,36.70
2019-05-02T03:57:33.336Z,34.97
2019-05-02T04:00:00.740Z,35.33
2019-05-02T04:02:27.311Z,37.00
2019-05-02T04:05:00.720Z,38.07
2019-05-02T04:07:23.131Z,33.90
2019-05-02T04:09:49.584Z,34.57
2019-05-02T04:12:21.695Z,36.47
2019-05-02T04:14:44.525Z,35.53
2019-05-02T04:17:10.998Z,37.60
2019-05-02T04:19:39.069Z,37.20
2019-05-02T04:22:09.474Z,37.43
2019-05-02T04:24:34.498Z,39.37
2019-05-02T04:27:00.991Z,36.43
2019-05-02T04:29:31.117Z,34.60
2019-05-02T04:31:55.745Z,34.63
2019-05-02T04:34:25.448Z,35.30
2019-05-02T04:36:59.763Z,35.33
2019-05-02T04:39:21.621Z,36.70
2019-05-02T04:41:48.677Z,32.90
2019-05-02T04:44:15.299Z,37.83
2019-05-02T04:46:41.749Z,32.73
2019-05-02T04:49:09.197Z,35.90
2019-05-02T04:51:38.201Z,36.87
2019-05-02T04:54:04.260Z,36.73
2019-05-02T04:56:30.724Z,34.93
2019-05-02T04:59:01.362Z,35.57
2019-05-02T05:01:33.147Z,38.23
2019-05-02T05:04:02.219Z,36.23
2019-05-02T05:06:22.274Z,34.70
2019-05-02T05:08:48.849Z,39.57
2019-05-02T05:11:21.306Z,39.17
2019-05-02T05:13:44.591Z,32.00
2019-05-02T05:16:15.542Z,28.63
2019-05-02T05:18:39.507Z,30.80
2019-05-02T05:21:10.239Z,28.37
2019-05-02T05:23:37.769Z,26.67
2019-05-02T05:26:04.814Z,27.07
2019-05-02T05:28:35.166Z,25.60
2019-05-02T05:30:59.711Z,23.30
2019-05-02T05:33:27.938Z,29.27
2019-05-02T05:35:54.419Z,26.60
2019-05-02T05:38:23.025Z,24.80
2019-05-02T05:40:50.255Z,26.77
2019-05-02T05:43:20.352Z,27.43
2019-05-02T05:45:53.355Z,25.40
2019-05-02T05:48:13.962Z,25.77
2019-05-02T05:50:41.525Z,28.13
2019-05-02T05:53:08.110Z,27.27
2019-05-02T05:55:38.188Z,27.60
2019-05-02T05:58:12.138Z,30.10
2019-05-02T06:00:33.176Z,31.43
2019-05-02T06:03:10.123Z,26.10
2019-05-02T06:05:27.969Z,32.37
2019-05-02T06:07:54.415Z,28.10
2019-05-02T06:10:20.787Z,30.67
2019-05-02T06:12:47.134Z,27.73
2019-05-02T06:15:13.633Z,28.30
2019-05-02T06:17:40.095Z,31.43
2019-05-02T06:20:06.846Z,28.27
2019-05-02T06:22:33.779Z,26.63
2019-05-02T06:25:02.145Z,25.87
2019-05-02T06:27:30.470Z,25.80
2019-05-02T06:29:57.386Z,23.03
2019-05-02T06:32:24.006Z,24.50
2019-05-02T06:34:50.575Z,23.20
2019-05-02T06:37:16.951Z,24.30
2019-05-02T06:39:43.414Z,22.03
2019-05-02T06:42:09.967Z,21.50
2019-05-02T06:44:36.415Z,24.97
2019-05-02T06:47:04.262Z,21.80
2019-05-02T06:49:31.228Z,21.50
2019-05-02T06:51:57.788Z,19.97
2019-05-02T06:54:24.170Z,17.12
2019-05-02T06:56:50.747Z,17.60
2019-05-02T06:59:18.533Z,22.47
2019-05-02T07:01:45.664Z,18.27
2019-05-02T07:04:12.215Z,21.50
2019-05-02T07:06:50.140Z,20.17
2019-05-02T07:09:07.109Z,18.10
2019-05-02T07:11:38.949Z,16.32
2019-05-02T07:14:12.486Z,14.33
2019-05-02T07:16:38.559Z,17.02
2019-05-02T07:19:02.487Z,15.93
2019-05-02T07:21:29.197Z,15.75
2019-05-02T07:23:55.747Z,18.07
2019-05-02T07:26:23.362Z,17.15
2019-05-02T07:28:49.891Z,17.95
2019-05-02T07:31:16.365Z,15.58
2019-05-02T07:33:42.712Z,14.15
2019-05-02T07:36:09.159Z,17.12
2019-05-02T07:38:35.531Z,14.95
2019-05-02T07:41:02.006Z,16.65
2019-05-02T07:43:28.572Z,15.55
2019-05-02T07:45:55.014Z,17.42
2019-05-02T07:48:21.591Z,12.10
2019-05-02T07:50:48.150Z,12.82
2019-05-02T07:53:14.811Z,16.52
2019-05-02T07:55:42.733Z,13.28
2019-05-02T07:58:09.343Z,15.60
2019-05-02T08:00:37.104Z,14.43
2019-05-02T08:03:05.143Z,12.65
2019-05-02T08:05:31.831Z,14.87
2019-05-02T08:07:58.299Z,16.80
2019-05-02T08:10:24.899Z,18.20
2019-05-02T08:12:51.294Z,14.83
2019-05-02T08:15:17.629Z,17.73
2019-05-02T08:17:43.999Z,19.73
2019-05-02T08:20:13.585Z,18.87
2019-05-02T08:22:38.898Z,19.15
2019-05-02T08:25:10.407Z,18.45
2019-05-02T08:27:36.747Z,18.75
2019-05-02T08:30:05.905Z,16.05
2019-05-02T08:32:32.360Z,18.48
2019-05-02T08:34:58.943Z,20.45
2019-05-02T08:37:25.496Z,21.10
2019-05-02T08:39:51.963Z,20.30
2019-05-02T08:42:18.520Z,19.40
2019-05-02T08:44:51.327Z,18.60
2019-05-02T08:47:19.100Z,18.85
2019-05-02T08:49:42.585Z,20.62
2019-05-02T08:52:09.167Z,21.62
2019-05-02T08:54:35.635Z,22.22
2019-05-02T08:57:02.216Z,18.92
2019-05-02T08:59:28.684Z,16.77
2019-05-02T09:01:55.132Z,19.82
2019-05-02T09:04:24.101Z,21.50
2019-05-02T09:06:53.316Z,20.57
2019-05-02T09:09:22.823Z,26.70
2019-05-02T09:12:01.009Z,23.45
2019-05-02T09:14:14.991Z,20.60
2019-05-02T09:16:42.750Z,18.98
2019-05-02T09:19:15.240Z,18.48
2019-05-02T09:21:37.599Z,19.20
2019-05-02T09:24:08.367Z,18.65
2019-05-02T09:26:38.379Z,19.85
2019-05-02T09:29:03.929Z,17.73
2019-05-02T09:31:28.975Z,18.65
2019-05-02T09:33:55.800Z,18.40
2019-05-02T09:36:22.654Z,16.48
2019-05-02T09:38:53.973Z,19.60
2019-05-02T09:41:19.418Z,16.82
2019-05-02T09:43:45.910Z,16.23
2019-05-02T09:46:16.489Z,15.80
2019-05-02T09:48:42.523Z,17.32
2019-05-02T09:51:12.762Z,18.45
2019-05-02T09:53:37.170Z,18.75
2019-05-02T09:56:03.735Z,16.27
2019-05-02T09:58:31.970Z,13.25
2019-05-02T10:01:02.021Z,13.65
2019-05-02T10:03:28.642Z,17.65
2019-05-02T10:05:55.013Z,13.08
2019-05-02T10:08:22.927Z,13.13
2019-05-02T10:10:49.676Z,12.05
2019-05-02T10:13:16.119Z,18.67
2019-05-02T10:15:42.591Z,13.43
2019-05-02T10:18:13.636Z,14.20
2019-05-02T10:20:37.403Z,11.83
2019-05-02T10:23:04.066Z,16.85
2019-05-02T10:25:38.303Z,13.60
2019-05-02T10:27:59.035Z,12.15
2019-05-02T10:30:27.527Z,13.90
2019-05-02T10:32:57.256Z,14.23
2019-05-02T10:35:28.048Z,15.58
2019-05-02T10:37:52.814Z,13.70
2019-05-02T10:40:19.198Z,15.63
2019-05-02T10:42:45.651Z,16.52
2019-05-02T10:45:16.471Z,20.52
2019-05-02T10:47:42.244Z,17.48
2019-05-02T10:50:11.697Z,15.80
2019-05-02T10:52:38.103Z,15.30
2019-05-02T10:55:05.061Z,17.85
2019-05-02T10:57:32.645Z,12.88
2019-05-02T10:59:59.111Z,13.48
2019-05-02T11:02:27.409Z,12.75
2019-05-02T11:04:55.660Z,17.48
2019-05-02T11:07:26.186Z,17.92
2019-05-02T11:09:52.423Z,14.53
2019-05-02T11:12:21.775Z,12.80
2019-05-02T11:14:51.699Z,13.40
2019-05-02T11:17:20.082Z,17.87
2019-05-02T11:19:48.331Z,16.55
2019-05-02T11:22:14.718Z,18.70
2019-05-02T11:24:41.812Z,15.90
2019-05-02T11:27:08.384Z,15.48
2019-05-02T11:29:34.736Z,14.55
2019-05-02T11:32:02.789Z,14.15
2019-05-02T11:34:29.365Z,12.78
2019-05-02T11:36:55.849Z,16.48
2019-05-02T11:39:31.181Z,18.05
2019-05-02T11:41:52.574Z,18.57
2019-05-02T11:44:19.041Z,16.77
2019-05-02T11:46:47.092Z,13.98
2019-05-02T11:49:13.588Z,15.93
2019-05-02T11:51:41.630Z,16.27
2019-05-02T11:54:09.474Z,14.45
2019-05-02T11:56:35.999Z,16.37
2019-05-02T11:59:02.943Z,14.10
2019-05-02T12:01:37.391Z,13.50
2019-05-02T12:03:58.128Z,14.33
2019-05-02T12:06:24.679Z,10.25
2019-05-02T12:08:52.554Z,13.08
2019-05-02T12:11:19.399Z,12.98
2019-05-02T12:13:47.413Z,14.58
2019-05-02T12:16:15.162Z,16.87
2019-05-02T12:18:41.936Z,17.52
2019-05-02T12:21:08.372Z,15.45
2019-05-02T12:23:36.306Z,15.10
2019-05-02T12:26:03.206Z,17.25
2019-05-02T12:28:29.808Z,15.85
2019-05-02T12:30:56.256Z,14.38
2019-05-02T12:33:24.560Z,12.73
2019-05-02T12:35:52.465Z,11.95
2019-05-02T12:38:19.075Z,11.55
2019-05-02T12:40:45.531Z,13.38
2019-05-02T12:43:12.194Z,13.53
2019-05-02T12:45:38.747Z,12.85
2019-05-02T12:48:05.215Z,12.85
2019-05-02T12:50:32.210Z,12.23
2019-05-02T12:52:58.623Z,11.90
2019-05-02T12:55:25.015Z,11.57
2019-05-02T12:57:52.354Z,10.65
2019-05-02T13:00:19.478Z,10.38
2019-05-02T13:02:47.826Z,10.70
2019-05-02T13:05:14.289Z,15.10
2019-05-02T13:07:42.786Z,10.60
2019-05-02T13:10:11.823Z,12.03
2019-05-02T13:12:41.756Z,14.35
2019-05-02T13:15:08.479Z,11.63
2019-05-02T13:17:42.530Z,12.23
2019-05-02T13:20:04.654Z,16.10
2019-05-02T13:22:33.055Z,12.15
2019-05-02T13:25:02.211Z,10.93
2019-05-02T13:27:32.261Z,11.78
2019-05-02T13:29:57.360Z,12.28
2019-05-02T13:32:25.715Z,14.05
2019-05-02T13:34:57.081Z,13.20
2019-05-02T13:37:23.655Z,12.90
2019-05-02T13:39:53.052Z,13.93
2019-05-02T13:42:19.512Z,13.80
2019-05-02T13:44:47.907Z,10.93
2019-05-02T13:47:18.088Z,13.18
2019-05-02T13:49:53.210Z,13.05
2019-05-02T13:52:12.900Z,13.22
2019-05-02T13:54:39.477Z,12.75
2019-05-02T13:57:05.925Z,15.90
2019-05-02T13:59:33.745Z,14.07
2019-05-02T14:02:02.588Z,14.85
2019-05-02T14:04:28.922Z,12.82
2019-05-02T14:06:55.274Z,14.65
2019-05-02T14:09:23.523Z,10.38
2019-05-02T14:11:52.633Z,12.45
2019-05-02T14:14:19.076Z,11.65
2019-05-02T14:16:45.547Z,10.88
2019-05-02T14:19:12.611Z,11.95
2019-05-02T14:21:42.140Z,12.13
2019-05-02T14:24:08.747Z,10.20
2019-05-02T14:26:35.107Z,13.70
2019-05-02T14:29:02.586Z,10.05
2019-05-02T14:31:29.222Z,11.18
2019-05-02T14:33:57.556Z,10.63
2019-05-02T14:36:23.939Z,12.13
2019-05-02T14:38:52.420Z,14.47
2019-05-02T14:41:21.799Z,11.48
2019-05-02T14:43:48.872Z,12.55
2019-05-02T14:46:17.743Z,12.98
2019-05-02T14:48:45.185Z,15.53
2019-05-02T14:51:12.006Z,15.50
2019-05-02T14:53:38.479Z,14.63
2019-05-02T14:56:06.735Z,13.93
2019-05-02T14:58:37.661Z,14.45
2019-05-02T15:01:02.858Z,12.73
2019-05-02T15:03:29.479Z,16.37
2019-05-02T15:05:58.979Z,16.17
2019-05-02T15:08:24.300Z,15.00
2019-05-02T15:10:56.042Z,16.75
2019-05-02T15:13:19.020Z,12.65
2019-05-02T15:15:46.242Z,15.83
2019-05-02T15:18:17.409Z,16.60
2019-05-02T15:20:42.408Z,16.82
2019-05-02T15:23:14.425Z,12.53
2019-05-02T15:25:37.321Z,14.10
2019-05-02T15:28:03.822Z,12.40
2019-05-02T15:30:30.403Z,15.98
2019-05-02T15:32:58.697Z,12.68
2019-05-02T15:35:27.142Z,12.30
2019-05-02T15:37:56.666Z,13.28
2019-05-02T15:42:52.071Z,14.03
2019-05-02T15:45:20.456Z,16.52
2019-05-02T15:47:47.405Z,15.53
2019-05-02T15:50:14.736Z,12.05
2019-05-02T15:52:44.338Z,16.23
2019-05-02T15:55:11.590Z,16.77
2019-05-02T15:57:43.617Z,17.15
2019-05-02T16:00:10.329Z,15.68
2019-05-02T16:02:36.682Z,15.83
2019-05-02T16:05:05.536Z,17.48
2019-05-02T16:07:32.641Z,20.23
2019-05-02T16:10:01.189Z,14.87
2019-05-02T16:12:31.970Z,17.05
2019-05-02T16:14:55.891Z,20.62
2019-05-02T16:17:25.636Z,19.42
2019-05-02T16:19:58.226Z,18.90
2019-05-02T16:22:23.087Z,18.25
2019-05-02T16:24:51.025Z,22.73
2019-05-02T16:27:21.962Z,20.17
2019-05-02T16:29:46.031Z,22.65
2019-05-02T16:32:15.388Z,19.73
2019-05-02T16:34:43.785Z,21.52
2019-05-02T16:37:13.520Z,20.30
2019-05-02T16:39:42.560Z,18.67
2019-05-02T16:42:08.073Z,22.58
2019-05-02T16:44:34.464Z,22.48
2019-05-02T16:47:02.226Z,23.52
2019-05-02T16:49:32.181Z,21.15
2019-05-02T16:52:05.035Z,21.68
2019-05-02T16:54:27.350Z,18.30
2019-05-02T16:56:53.823Z,21.27
2019-05-02T16:59:21.483Z,18.30
2019-05-02T17:01:48.538Z,19.27
2019-05-02T17:04:14.917Z,20.40
2019-05-02T17:06:42.625Z,21.95
2019-05-02T17:09:11.920Z,19.65
2019-05-02T17:11:41.975Z,22.55
2019-05-02T17:14:12.100Z,20.72
2019-05-02T17:16:36.761Z,20.82
2019-05-02T17:19:03.215Z,23.18
2019-05-02T17:21:32.277Z,24.20
2019-05-02T17:23:58.041Z,24.30
2019-05-02T17:26:24.406Z,26.00
2019-05-02T17:28:52.084Z,21.73
2019-05-02T17:31:20.486Z,22.70
2019-05-02T17:33:51.112Z,23.52
2019-05-02T17:36:15.171Z,21.85
2019-05-02T17:38:41.886Z,21.73
2019-05-02T17:41:08.615Z,26.27
2019-05-02T17:43:37.389Z,23.25
2019-05-02T17:46:04.284Z,21.93
2019-05-02T17:48:34.231Z,24.02
2019-05-02T17:51:02.352Z,21.12
2019-05-02T17:53:33.557Z,20.88
2019-05-02T17:55:57.325Z,20.35
2019-05-02T17:58:23.869Z,23.92
2019-05-02T18:00:56.110Z,20.32
2019-05-02T18:03:24.252Z,23.02
2019-05-02T18:05:49.137Z,22.25
2019-05-02T18:08:15.666Z,24.27
2019-05-02T18:10:42.290Z,24.70
2019-05-02T18:13:08.837Z,21.90
2019-05-02T18:15:36.324Z,22.60
2019-05-02T18:18:06.534Z,21.02
2019-05-02T18:20:32.513Z,20.92
2019-05-02T18:22:59.125Z,21.15
2019-05-02T18:25:25.668Z,25.55
2019-05-02T18:27:52.127Z,21.07
2019-05-02T18:30:25.009Z,19.40
2019-05-02T18:32:48.275Z,20.70
2019-05-02T18:35:14.974Z,20.37
2019-05-02T18:37:42.817Z,19.12
2019-05-02T18:40:11.922Z,21.60
2019-05-02T18:42:38.587Z,22.02
2019-05-02T18:45:07.027Z,19.82
2019-05-02T18:47:33.589Z,21.80
2019-05-02T18:50:01.817Z,20.92
2019-05-02T18:52:36.312Z,18.35
2019-05-02T18:54:56.980Z,19.23
2019-05-02T18:57:25.905Z,20.57
2019-05-02T18:59:56.367Z,18.95
2019-05-02T19:02:21.593Z,20.52
2019-05-02T19:04:48.278Z,22.45
2019-05-02T19:07:15.910Z,20.37
2019-05-02T19:09:50.864Z,20.50
2019-05-02T19:12:19.709Z,20.97
2019-05-02T19:14:39.157Z,23.50
2019-05-02T19:17:07.277Z,23.30
2019-05-02T19:19:36.834Z,22.02
2019-05-02T19:22:02.696Z,24.27
2019-05-02T19:24:32.883Z,23.45
2019-05-02T19:26:59.131Z,20.17
2019-05-02T19:29:27.204Z,23.22
2019-05-02T19:31:53.880Z,22.55
2019-05-02T19:34:22.808Z,23.12
2019-05-02T19:36:48.757Z,22.67
2019-05-02T19:39:15.230Z,21.02
2019-05-02T19:41:44.117Z,20.72
2019-05-02T19:44:10.219Z,25.20
2019-05-02T19:46:38.833Z,24.80
2019-05-02T19:49:06.860Z,24.43
2019-05-02T19:51:33.840Z,23.95
2019-05-02T19:54:01.853Z,23.80
2019-05-02T19:56:33.433Z,22.65
2019-05-02T19:58:57.135Z,20.10
2019-05-02T20:01:26.569Z,21.47
2019-05-02T20:03:56.720Z,23.33
2019-05-02T20:06:22.078Z,21.47
2019-05-02T20:08:48.715Z,23.17
2019-05-02T20:11:15.079Z,23.53
2019-05-02T20:13:41.531Z,23.43
2019-05-02T20:16:11.819Z,23.73
2019-05-02T20:18:43.996Z,28.97
2019-05-02T20:21:12.136Z,24.57
2019-05-02T20:23:37.576Z,24.07
2019-05-02T20:26:04.355Z,24.47
2019-05-02T20:28:31.747Z,25.77
2019-05-02T20:30:58.315Z,23.07
2019-05-02T20:33:24.768Z,25.03
2019-05-02T20:35:52.801Z,23.17
2019-05-02T20:38:19.483Z,25.53
2019-05-02T20:40:45.972Z,26.57
2019-05-02T20:43:12.319Z,23.43
2019-05-02T20:45:38.789Z,24.70
2019-05-02T20:48:05.331Z,22.07
2019-05-02T20:50:31.977Z,22.57
2019-05-02T20:52:58.454Z,22.37
2019-05-02T20:55:25.019Z,24.07
2019-05-02T20:57:52.721Z,23.63
2019-05-02T21:00:23.382Z,25.90
2019-05-02T21:02:49.610Z,22.50
2019-05-02T21:05:17.895Z,25.20
2019-05-02T21:07:46.311Z,23.97
2019-05-02T21:10:14.835Z,25.13
2019-05-02T21:12:41.923Z,24.47
2019-05-02T21:15:08.744Z,23.53
2019-05-02T21:17:35.188Z,25.33
2019-05-02T21:20:02.682Z,21.97
2019-05-02T21:22:29.160Z,22.73
2019-05-02T21:24:55.620Z,22.47
2019-05-02T21:27:22.119Z,24.03
2019-05-02T21:29:48.564Z,23.60
2019-05-02T21:32:15.144Z,23.20
2019-05-02T21:34:42.503Z,22.33
2019-05-02T21:37:09.167Z,21.70
2019-05-02T21:39:35.540Z,21.33
2019-05-02T21:42:02.403Z,22.73
2019-05-02T21:44:28.972Z,22.63
2019-05-02T21:46:55.532Z,24.43
2019-05-02T21:49:23.881Z,21.67
2019-05-02T21:51:52.259Z,24.83
2019-05-02T21:54:22.544Z,23.33
2019-05-02T21:56:52.229Z,23.10
2019-05-02T21:59:18.859Z,21.57
2019-05-02T22:01:48.706Z,23.93
2019-05-02T22:04:15.167Z,22.60
2019-05-02T22:06:42.738Z,22.77
2019-05-02T22:09:09.623Z,20.23
2019-05-02T22:11:36.605Z,22.67
2019-05-02T22:14:03.647Z,20.77
2019-05-02T22:16:30.116Z,22.40
2019-05-02T22:18:56.467Z,22.80
2019-05-02T22:21:22.921Z,25.60
2019-05-02T22:23:49.287Z,23.17
2019-05-02T22:26:15.731Z,26.73
2019-05-02T22:28:42.119Z,25.40
2019-05-02T22:31:08.573Z,26.87
2019-05-02T22:33:35.134Z,26.40
2019-05-02T22:36:01.913Z,24.17
2019-05-02T22:38:31.783Z,27.33
2019-05-02T22:40:58.760Z,26.57
2019-05-02T22:43:25.323Z,26.97
2019-05-02T22:45:51.689Z,26.07
2019-05-02T22:48:18.179Z,28.13
2019-05-02T22:50:45.428Z,30.60
2019-05-02T22:53:12.001Z,30.87
2019-05-02T22:55:40.156Z,30.37
2019-05-02T22:58:06.623Z,32.07
2019-05-02T23:00:33.175Z,33.67
2019-05-02T23:03:01.800Z,31.00
2019-05-02T23:05:27.991Z,35.87
2019-05-02T23:07:54.559Z,33.43
2019-05-02T23:10:22.046Z,33.67
2019-05-02T23:12:48.619Z,34.50
2019-05-02T23:15:15.100Z,35.20
2019-05-02T23:17:42.789Z,33.67
2019-05-02T23:20:09.326Z,35.50
2019-05-02T23:22:35.799Z,37.00
2019-05-02T23:25:05.053Z,38.87
2019-05-02T23:27:33.488Z,36.77
2019-05-02T23:29:59.931Z,42.53
2019-05-02T23:32:26.484Z,35.13
2019-05-02T23:34:52.959Z,34.93
2019-05-02T23:37:19.406Z,38.40
2019-05-02T23:39:45.773Z,40.53
2019-05-02T23:42:13.500Z,34.40
2019-05-02T23:44:40.112Z,38.53
2019-05-02T23:47:06.554Z,37.87
2019-05-02T23:49:32.919Z,36.70
2019-05-02T23:51:59.371Z,38.43
2019-05-02T23:54:25.934Z,43.53
2019-05-02T23:56:52.287Z,39.43
2019-05-02T23:59:18.659Z,43.80
